Kipling, North Carolina
Current Conditions -  °F | °C
As of 10:55 AM on Thursday 27 Nov 2014 (Local Time) from KHRJ Reporting Station
Overcast Overcast  
Wind Chill: 48°   Ceiling: 1400
Heat Index: 48°   Visibility: 10mi
Dew Point: 40°   Wind: 0mph
Humidity: 74%   Direction: NA
Pressure: 30.03"   Gusts: NA
Location:  35.48°N, 78.82°W
Report Text: KHRJ 271555Z AUTO 00000KT 10SM BKN014 OVC060 09/05 A3003 RMK AO2 T00900045
Loading
Personal Weather Stations






























Interactive Weather Map New forecast layout! Learn more

10-Day Weather Forecast

Advertisements
Track Severe Weather on mobile